Islamorada, FL (33036)

6:56 AM EDT on September 25, 2016 (GMT -0400)
Brown and Crebbin Design Studio | | Change Station

Elev 9 ft 25.00 °N, 80.54 °W | Updated 12 seconds ago

Clear
Clear
78.8 °F
Feels Like 83 °F
N
0.0
Wind Variable Wind from NNE
Gusts 1.0 mph

Today
High -- | Low -- °F
--% Chance of Precip.
Yesterday
High -- | Low -- °F
Precip. -- in
Pressure 29.98 in
Visibility 10.0 miles
Clouds Clear
Heat Index 83 °F
Dew Point 77 °F
Humidity 94%
Rainfall 0.05 in
Snow Depth Not available.
7:12 AM 7:15 PM
Waning Crescent, 29% visible
METAR KHST 250958Z AUTO 36003KT 10SM CLR 24/23 A2997 RMK AO2 LTG DSNT E AND W SLP152 T02370227
Pressure 29.98 in
Visibility 10.0 miles
Clouds Clear
Heat Index 83 °F
Dew Point 77 °F
Humidity 94%
Rainfall 0.05 in
Snow Depth Not available.
7:12 AM 7:15 PM
Waning Crescent, 29% visible
METAR KHST 250958Z AUTO 36003KT 10SM CLR 24/23 A2997 RMK AO2 LTG DSNT E AND W SLP152 T02370227

10-Day Weather Forecast

Almanac

Astronomy

Sep. 25, 2016 Rise Set
Actual Time
Civil Twilight
Nautical Twilight
Astronomical Twilight
Moon
Length of Visible Light
Length of Day
Tomorrow will be .
, % of the Moon is Illuminated

Today's Extremes

State Highs State Lows

Community

WunderPhotos

Upload Photos

1,941,570 photos uploaded!

WunderBlog® & News

Nearby

Air Quality

  Air Quality AQ Index Pollutant
Not available.

Snow Depth

Station Depth Elevation

Earthquake Activity

City Distance Mag. Time & Date
Minimum magnitude displayed is 2.5.

Coastal Water Temperatures

Place Temperature

Stations

Nearby Weather Stations

Station Location Temp. Windchill Dew Point Humidity Wind Precip. Elev Updated Type
                   

Watches & Warnings

There are currently no watches in effect.